Lake Jacksonville, Texas
Current Conditions -  °F | °C
As of 7:35 PM on Wednesday 26 Nov 2014 (Local Time) from KJSO Reporting Station
Clear Clear  
Wind Chill: 56°   Ceiling: Unl
Heat Index: 56°   Visibility: 10mi
Dew Point: 32°   Wind: 3mph
Humidity: 40%   Direction: 260°W
Pressure: 30.27"   Gusts: NA
Location:  31.9649°N, 95.3036°W
Report Text: KJSO 270135Z AUTO 26003KT 10SM CLR 13/00 A3027 RMK AO2 T01330000
Loading
Personal Weather Stations






























Interactive Weather Map New forecast layout! Learn more

10-Day Weather Forecast

Advertisements
Track Severe Weather on mobile